SAAP/PRA METAR and TAF weather

Enter ICAO airport designator
Station Type Date Time Source
SAAP METAR 2023/01/27 19:33 UTC NOAA

SAAP 271933Z 19010KT 8000 -TSRA FEW015 FEW050CB BKN045 BKN200 23/21 Q1013


Station Type Date Time Source
SAAP Decoded METAR 2023/01/27 19:33 UTC NOAA

Parana Aerodrome, Argentina (SAAP) 31-47S 060-29W 78M
Jan 27, 2023 - 02:33 PM EST / 2023.01.27 1933 UTC
Wind: from the S (190 degrees) at 12 MPH (10 KT):0
Visibility: 4 mile(s):0
Sky conditions: mostly cloudy
Weather: light rain with thunder; Cumulonimbus clouds observed
Temperature: 73 F (23 C)
Dew Point: 69 F (21 C)
Relative Humidity: 88%
Pressure (altimeter): 29.91 in. Hg (1013 hPa)
ob: SAAP 271933Z 19010KT 8000 -TSRA FEW015 FEW050CB BKN045 BKN200 23/21 Q1013
cycle: 19

Station Type Date Time Source
SAAP TAF 2023/01/17 00:12 UTC NOAA

TAF TAF SAAP 172300Z 1800/1824 09005KT CAVOK TX34/1819Z TN26/1809Z
BECMG 1811/1813 16010KT 9999 SCT040
TEMPO 1812/1817 5000 TSRA SCT030 FEW050CB

Example: see airport list